Manzini, Swaziland

10:44 AM SAST on October 23, 2014 (GMT +0200)
Matsapha International | Change Station
CLOSE
Current Station
Airport
Location: Manzini,
Elevation: 2103 ft
Nearby Weather Stations

Elev 2103 ft 26.53 °S, 31.31 °E | Updated 44 minutes ago

Mostly Cloudy
Mostly Cloudy
63 °F
Feels Like 63 °F
N
0
Wind Variable Wind from North

Today
High -- | Low -- °F
--% Chance of Precip.
Yesterday
High -- | Low -- °F
Precip. -- in
5:12 AM 6:06 PM
Waning Crescent, 0% visible
Pressure 30.15 in
Visibility 6.2 miles
Clouds Scattered Clouds 2500 ft
Mostly Cloudy 3000 ft
Dew Point 59 °F
Humidity 88%
Rainfall 0.00 in
Snow Depth Not available.
UV 7 out of 12
Pollen Not available.
Air Quality Not available.
Flu Activity Not available.
METAR FDMS 230800Z 00000KT 9999 SCT025 BKN030 17/15 Q1021 NOSIG

More Conditions Fewer Conditions

Pressure 30.15 in
Visibility 6.2 miles
Clouds Scattered Clouds 2500 ft
Mostly Cloudy 3000 ft
Dew Point 59 °F
Humidity 88%
Rainfall 0.00 in
Snow Depth Not available.
UV 7 out of 12
Pollen Not available.
Air Quality Not available.
Flu Activity Not available.
METAR FDMS 230800Z 00000KT 9999 SCT025 BKN030 17/15 Q1021 NOSIG

More Conditions Fewer Conditions

10-Day Weather Forecast

Almanac

Astronomy

Oct. 23, 2014 Rise Set
Actual Time 5:12 AM SAST 6:06 PM SAST
Civil Twilight 4:48 AM SAST 6:30 PM SAST
Nautical Twilight 4:20 AM SAST 6:58 PM SAST
Astronomical Twilight 3:51 AM SAST 7:27 PM SAST
Moon 4:49 AM SAST 5:48 PM SAST
Length of Visible Light 13h 41m
Length of Day
12h 53m
Tomorrow will be 1m 28s longer.
Waning Crescent, 0% of the Moon is Illuminated
Today
Waning Crescent
Oct 23
New
Oct 30
First Quarter
Nov 6
Full
Nov 14
Last Quarter

Yesterday's Extremes

Country Highs Country Lows

Community

WunderPhotos

Upload Photos

1,764,197 photos uploaded!

Nearby

Snow Depth

Not available.

Earthquake Activity

City Distance Mag. Time & Date
No recent earthquake activity has been reported nearby.
Minimum magnitude displayed is 2.5.

Coastal Water Temperatures

Place Temperature
No Stations Reporting

Nearby Weather Stations